アナディリ の空港の天気 - METARとTAF

アナディリ・ウゴルヌイ空港 ( UHMA / DYR ) - ロシア アナディリ
飛行場実況気象(Metar)
観測時間11/27 19:00 MAGT (11/27 08:00 UTC)
風向・風速不定 1m/s
視程10km以上
天気現象周辺で霧
少しの雲 雲底高度 880m
気温-20℃
湿度77%
気圧1034hPa
METARUHMA 270800Z VRB01MPS 9999 VCFG FEW029 M20/M23 Q1034 R01/////// NOSIG RMK TDZ R01/01001G02MPS END R01/01001G02MPS QFE772/1029
過去の天気等 Google飛行場航空写真 Wunderground天気予報

過去48時間のMETAR

飛行場予報(TAF)
発表時間: 11/27 18:37 MAGT (11/27 07:37 UTC)
予報対象時間: 27日20時 MAGT ~ 28日20時 MAGT
風向・風速北北東 3m/s
視程6000m
全天の4割程度の雲 雲底高度 150m
全天の4割程度の雲 雲底高度 610m
27日20時 MAGT ~ 28日8時 MAGT に一時的に
視程300m
天気現象弱い雪 氷霧
全天を覆う雲 雲底高度 60m
28日8時 MAGT ~ 28日14時 MAGT に一時的に
風向・風速東北東 6m/s 瞬間風速 11m/s
天気現象低い地吹雪
28日14時 MAGT ~ 28日15時 MAGT に徐々に
風向・風速東 10m/s 瞬間風速 15m/s
天気現象低い地吹雪
28日15時 MAGT ~ 28日20時 MAGT に一時的に
視程3500m
天気現象高い地吹雪
全天の8割程度の雲 雲底高度 460m
TAF UHMA 270737Z 2709/2809 03003MPS 6000 SCT005 SCT020
TEMPO 2709/2721 0300 -SN FZFG OVC002
TEMPO 2721/2803 07006G11MPS DRSN
BECMG 2803/2804 08010G15MPS DRSN
TEMPO 2804/2809 3500 BLSN BKN015